Aérodrome :
LOGIN :

S'inscrire | Disclaimer

   EN    FR    IT 

 










Légende :    VFR   VFR Marginal   IFR   IFR Intensif   IFR Très Intensif
Visi : 
Plafond : 
>= 8 km
>= 3000ft
5 à 8 km
1000 à 3000 ft
1500m à 5 km
500 à 1000 ft
800 à 1500m
200 à 500 ft
< 800m
< 200 ft
Symboles :   Orages  Brouillard  Fortes neiges  Fortes précipitations  Vent > 20 kt
SIGMETs :   Divers  Orages  Givrage  Turbulence  Onde Orograph.  Cendres Volcan.







- Altitude de l'aérodrome : 204 ft
- Code IATA : AGF
- Voir les cartes d'approche


LFBA - Agen

DERNIER METAR :
  • 251130Z AUTO 30008KT 270V340 8000 FEW022 SCT250 06/00 Q1012 NOSIG

METARs EXPIRÉS :
  • 251100Z AUTO 31007KT 270V350 7000 NSC 05/00 Q1012 TEMPO BKN013
  • 251030Z AUTO 29005KT 250V350 7000 FEW019 05/00 Q1012 TEMPO BKN013
  • 251000Z AUTO 29004KT 260V330 6000 NSC 04/01 Q1012 TEMPO BKN013
  • 250930Z AUTO 31004KT 270V340 5000 BR NSC 03/01 Q1012 TEMPO BKN013
  • 250900Z AUTO 30003KT 5000 BR NSC 02/00 Q1012 TEMPO BKN013

TAF TAF LFBA
Valide du 25 à 12h jusqu'au 25 à 21h UTC


251100Z 2512/2521 30005KT CAVOK
PROB40
TEMPO 2512/2514 BKN020
Pas de NOTAMs connus pour ce terrain.



MET'MAP, la Météo Aéronautique d'un coup d'oeil ! - Copyright ORBIFLY Décembre 2007 - Disclaimer

ORBIFLY MET'MAP TEAM :

Programmation & Développement : Alexandra Zaïnal
Conception & Développement : Baudouin d'Aumeries
Co-Programmation & Développement : Marc-Olivier Méhu
Soutien technique & logistique : Manuel Goepfert

Contact : metmap@orbifly.com




SOURCES & CREDITS :

   NOAA